Time;durP1;ratioP1;P1;durP2;ratioP2;P2;SDS_P1;SDS_P2;PMS_P1;PMS_P2;Temp;Humidity;BMP_temperature;BMP_pressure;BME280_temperature;BME280_humidity;BME280_pressure;Samples;Min_cycle;Max_cycle;Signal;HPM_P1;HPM_P2
2022/04/08 00:01:22;;;;;;;0.00;0.00;;;10.00;90.60;;;;;;4995174;28;20026;-63
2022/04/08 00:03:49;;;;;;;0.03;0.03;;;10.00;90.90;;;;;;4995352;28;20030;-63
2022/04/08 00:06:15;;;;;;;0.00;0.00;;;9.90;91.60;;;;;;5012374;28;20026;-63
2022/04/08 00:08:41;;;;;;;0.00;0.00;;;9.90;91.10;;;;;;5012272;28;20056;-63
2022/04/08 00:11:07;;;;;;;6.72;1.20;;;9.90;91.60;;;;;;4994915;28;20026;-62
2022/04/08 00:13:33;;;;;;;1.42;1.33;;;9.80;91.70;;;;;;4994659;28;20496;-63
2022/04/08 00:15:59;;;;;;;0.00;0.00;;;9.80;91.20;;;;;;5012403;28;20036;-65
2022/04/08 00:18:24;;;;;;;0.20;0.20;;;9.90;91.20;;;;;;4994987;28;20026;-63
2022/04/08 00:20:50;;;;;;;0.10;0.10;;;9.90;91.60;;;;;;5012553;28;20434;-63
2022/04/08 00:23:16;;;;;;;0.00;0.00;;;9.90;91.10;;;;;;5012690;28;20033;-63
2022/04/08 00:25:42;;;;;;;1.98;0.90;;;9.80;91.30;;;;;;4994880;28;20072;-63
2022/04/08 00:28:07;;;;;;;0.00;0.00;;;9.90;91.50;;;;;;5011896;28;20030;-62
2022/04/08 00:30:33;;;;;;;0.28;0.28;;;9.80;91.60;;;;;;5011943;28;20551;-63
2022/04/08 00:32:59;;;;;;;0.00;0.00;;;9.70;91.40;;;;;;4994557;28;20042;-63
2022/04/08 00:35:25;;;;;;;0.10;0.10;;;9.80;91.90;;;;;;5012288;28;20026;-62
2022/04/08 00:37:51;;;;;;;0.00;0.00;;;9.70;91.90;;;;;;5011837;28;20119;-62
2022/04/08 00:40:17;;;;;;;0.20;0.20;;;9.70;91.80;;;;;;4978422;28;20053;-63
2022/04/08 00:42:44;;;;;;;3.17;1.65;;;9.70;91.60;;;;;;5011017;28;20045;-63
2022/04/08 00:45:10;;;;;;;0.00;0.00;;;9.70;91.80;;;;;;5011993;28;20033;-62
2022/04/08 00:47:40;;;;;;;0.00;0.00;;;9.70;91.60;;;;;;4993911;28;20405;-63
2022/04/08 00:50:10;;;;;;;0.20;0.20;;;9.60;92.40;;;;;;5011939;28;20069;-63
2022/04/08 00:52:41;;;;;;;0.00;0.00;;;9.60;92.20;;;;;;5011836;28;20643;-63
2022/04/08 00:55:08;;;;;;;0.00;0.00;;;9.50;92.40;;;;;;5010127;23;20046;-62
2022/04/08 00:57:34;;;;;;;0.70;0.55;;;9.50;92.60;;;;;;4988597;28;20031;-62
2022/04/08 01:00:07;;;;;;;0.00;0.00;;;9.40;93.00;;;;;;5006866;28;20030;-62
2022/04/08 01:02:34;;;;;;;0.00;0.00;;;9.40;93.10;;;;;;4990755;28;20030;-62
2022/04/08 01:05:00;;;;;;;0.32;0.32;;;9.40;92.50;;;;;;4992355;28;20136;-62
2022/04/08 01:07:26;;;;;;;1.55;0.95;;;9.40;93.20;;;;;;4988274;28;20045;-62
2022/04/08 01:09:52;;;;;;;0.00;0.00;;;9.50;93.20;;;;;;4980711;28;20050;-62
2022/04/08 01:12:18;;;;;;;0.00;0.00;;;9.40;93.00;;;;;;5020755;28;20668;-62
2022/04/08 01:14:44;;;;;;;0.00;0.00;;;9.30;93.10;;;;;;5009999;28;20433;-62
2022/04/08 01:17:10;;;;;;;0.00;0.00;;;9.40;93.10;;;;;;4990304;28;20023;-62
2022/04/08 01:19:36;;;;;;;0.00;0.00;;;9.40;93.00;;;;;;4991126;28;20304;-62
2022/04/08 01:22:03;;;;;;;0.00;0.00;;;9.20;94.40;;;;;;4991568;28;20379;-62
2022/04/08 01:24:32;;;;;;;0.00;0.00;;;9.30;94.00;;;;;;5015468;28;20489;-62
2022/04/08 01:26:58;;;;;;;0.43;0.43;;;9.20;93.60;;;;;;5010865;28;20477;-62
2022/04/08 01:29:23;;;;;;;0.10;0.10;;;9.20;94.20;;;;;;5011032;28;20033;-62
2022/04/08 01:31:49;;;;;;;0.00;0.00;;;9.20;94.30;;;;;;5011178;28;20120;-63
2022/04/08 01:34:15;;;;;;;0.10;0.10;;;9.20;94.30;;;;;;5010982;28;20099;-62
2022/04/08 01:36:41;;;;;;;0.00;0.00;;;9.10;95.60;;;;;;5010550;28;20104;-62
2022/04/08 01:39:06;;;;;;;0.00;0.00;;;9.10;94.70;;;;;;5010850;28;20119;-62
2022/04/08 01:41:32;;;;;;;0.00;0.00;;;9.10;95.40;;;;;;5001636;28;20042;-62
2022/04/08 01:43:59;;;;;;;0.20;0.20;;;9.10;95.60;;;;;;5006000;28;20034;-62
2022/04/08 01:46:25;;;;;;;0.00;0.00;;;9.10;95.30;;;;;;4990891;28;20040;-62
2022/04/08 01:48:55;;;;;;;0.00;0.00;;;9.10;95.30;;;;;;4989970;28;20070;-61
2022/04/08 01:51:22;;;;;;;0.00;0.00;;;9.10;95.80;;;;;;5005976;28;20096;-62
2022/04/08 01:53:48;;;;;;;0.00;0.00;;;8.90;96.60;;;;;;4990614;28;20030;-62
2022/04/08 01:56:13;;;;;;;0.00;0.00;;;9.00;96.40;;;;;;4990713;28;20037;-62
2022/04/08 01:58:39;;;;;;;0.00;0.00;;;9.00;96.80;;;;;;4990798;28;20034;-62
2022/04/08 02:01:05;;;;;;;0.00;0.00;;;9.00;96.30;;;;;;5006157;28;20497;-62
2022/04/08 02:03:32;;;;;;;3.90;1.30;;;9.00;96.80;;;;;;4990525;28;20031;-62
2022/04/08 02:05:59;;;;;;;0.10;0.10;;;8.80;97.80;;;;;;4990930;28;20089;-62
2022/04/08 02:08:25;;;;;;;0.00;0.00;;;8.80;97.80;;;;;;4990480;28;20037;-62
2022/04/08 02:10:53;;;;;;;0.00;0.00;;;8.80;97.80;;;;;;5006005;28;20035;-62
2022/04/08 02:13:22;;;;;;;0.20;0.20;;;8.80;98.00;;;;;;4990911;28;20038;-62
2022/04/08 02:15:48;;;;;;;11.95;2.05;;;8.80;98.00;;;;;;4999626;28;20022;-62
2022/04/08 02:18:14;;;;;;;2.92;2.67;;;8.70;98.60;;;;;;5010072;28;20044;-62
2022/04/08 02:20:41;;;;;;;1.70;1.60;;;8.80;98.40;;;;;;5010154;28;20101;-62
2022/04/08 02:23:07;;;;;;;0.47;0.47;;;8.70;98.80;;;;;;5008945;28;20125;-62
2022/04/08 02:25:36;;;;;;;0.00;0.00;;;8.60;99.80;;;;;;5008873;28;20069;-62
2022/04/08 02:28:02;;;;;;;0.00;0.00;;;8.70;98.60;;;;;;5009751;28;20041;-62
2022/04/08 02:30:28;;;;;;;0.10;0.10;;;8.70;98.70;;;;;;5013182;28;20165;-62
2022/04/08 02:32:55;;;;;;;0.28;0.28;;;8.80;99.50;;;;;;5013027;28;20652;-62
2022/04/08 02:35:20;;;;;;;0.00;0.00;;;8.60;99.80;;;;;;5014234;28;20018;-62
2022/04/08 02:37:46;;;;;;;0.15;0.15;;;8.50;99.90;;;;;;5029104;28;20112;-62
2022/04/08 02:40:12;;;;;;;0.08;0.08;;;8.50;99.90;;;;;;5014166;28;20038;-62
2022/04/08 02:42:38;;;;;;;0.22;0.22;;;8.50;99.90;;;;;;5013935;28;20049;-62
2022/04/08 02:45:04;;;;;;;0.28;0.28;;;8.50;99.90;;;;;;5013949;28;20063;-62
2022/04/08 02:47:30;;;;;;;0.00;0.00;;;8.40;99.90;;;;;;5012277;28;20084;-62
2022/04/08 02:49:56;;;;;;;0.00;0.00;;;8.40;99.90;;;;;;5013705;28;20113;-62
2022/04/08 02:52:21;;;;;;;0.10;0.10;;;8.30;99.90;;;;;;5014044;28;20041;-62
2022/04/08 02:54:47;;;;;;;0.10;0.10;;;8.30;99.90;;;;;;5013725;28;20038;-62
2022/04/08 02:57:13;;;;;;;0.00;0.00;;;8.20;99.90;;;;;;5013433;28;20030;-62
2022/04/08 02:59:39;;;;;;;0.20;0.20;;;8.20;99.90;;;;;;5014013;28;20052;-62
2022/04/08 03:02:04;;;;;;;0.00;0.00;;;8.40;99.90;;;;;;5013754;28;20022;-62
2022/04/08 03:04:30;;;;;;;0.00;0.00;;;8.40;99.90;;;;;;5013350;28;20030;-62
2022/04/08 03:06:58;;;;;;;1.98;1.88;;;8.50;99.90;;;;;;5013298;28;20030;-62
2022/04/08 03:09:23;;;;;;;0.00;0.00;;;8.40;99.90;;;;;;5013558;28;20127;-62
2022/04/08 03:11:49;;;;;;;0.00;0.00;;;8.40;99.90;;;;;;5028862;28;20069;-62
2022/04/08 03:14:15;;;;;;;0.00;0.00;;;8.30;99.90;;;;;;5013383;28;20493;-62
2022/04/08 03:16:41;;;;;;;0.70;0.70;;;8.40;99.90;;;;;;4995763;28;20030;-62
2022/04/08 03:19:06;;;;;;;0.00;0.00;;;8.40;99.90;;;;;;5008733;28;20034;-62
2022/04/08 03:21:32;;;;;;;0.00;0.00;;;8.40;99.90;;;;;;4993840;28;20101;-62
2022/04/08 03:23:58;;;;;;;0.65;0.65;;;8.40;99.90;;;;;;4993483;28;20517;-62
2022/04/08 03:26:24;;;;;;;0.00;0.00;;;8.40;99.90;;;;;;4993427;28;20034;-62
2022/04/08 03:28:50;;;;;;;0.00;0.00;;;8.30;99.90;;;;;;4993713;28;20035;-62
2022/04/08 03:31:16;;;;;;;0.10;0.10;;;8.30;99.90;;;;;;5008538;28;20030;-62
2022/04/08 03:33:42;;;;;;;0.00;0.00;;;8.30;99.90;;;;;;5008178;28;20026;-61
2022/04/08 03:36:08;;;;;;;0.13;0.13;;;8.40;99.90;;;;;;5008370;28;20037;-62
2022/04/08 03:38:34;;;;;;;0.00;0.00;;;8.50;99.90;;;;;;4993158;28;20081;-62
2022/04/08 03:41:00;;;;;;;0.00;0.00;;;8.30;99.90;;;;;;4993002;28;20046;-62
2022/04/08 03:43:27;;;;;;;0.00;0.00;;;8.30;99.90;;;;;;4992067;28;20490;-62
2022/04/08 03:45:53;;;;;;;0.00;0.00;;;8.30;99.90;;;;;;4993415;28;20125;-62
2022/04/08 03:48:19;;;;;;;1.45;1.35;;;8.30;99.90;;;;;;4992924;28;20117;-62
2022/04/08 03:50:45;;;;;;;0.00;0.00;;;8.30;99.90;;;;;;4991937;28;20103;-62
2022/04/08 03:53:12;;;;;;;0.35;0.35;;;8.30;99.90;;;;;;4993192;28;20038;-62
2022/04/08 03:55:39;;;;;;;0.00;0.00;;;8.30;99.90;;;;;;5007764;28;20034;-62
2022/04/08 03:58:05;;;;;;;0.00;0.00;;;8.40;99.90;;;;;;4992644;28;20033;-62
2022/04/08 04:00:30;;;;;;;0.10;0.10;;;8.40;99.90;;;;;;5004309;28;20039;-62
2022/04/08 04:02:56;;;;;;;0.00;0.00;;;8.30;99.90;;;;;;4973491;28;20039;-62
2022/04/08 04:05:22;;;;;;;0.08;0.08;;;8.40;99.90;;;;;;4972737;28;20391;-62
2022/04/08 04:07:47;;;;;;;0.00;0.00;;;8.40;99.90;;;;;;4986823;28;20038;-62
2022/04/08 04:10:14;;;;;;;0.00;0.00;;;8.50;99.90;;;;;;4980453;28;20026;-63
2022/04/08 04:12:42;;;;;;;0.20;0.20;;;8.50;99.90;;;;;;4995910;28;20049;-62
2022/04/08 04:15:09;;;;;;;0.15;0.15;;;8.50;99.90;;;;;;4995279;28;20018;-62
2022/04/08 04:17:36;;;;;;;0.00;0.00;;;8.50;99.90;;;;;;5011586;28;20041;-62
2022/04/08 04:20:04;;;;;;;0.00;0.00;;;8.50;99.90;;;;;;5011879;28;20033;-62
2022/04/08 04:22:30;;;;;;;0.10;0.10;;;8.40;99.90;;;;;;4994094;28;20095;-62
2022/04/08 04:24:55;;;;;;;0.00;0.00;;;8.30;99.90;;;;;;5011825;28;20038;-62
2022/04/08 04:27:21;;;;;;;0.00;0.00;;;8.30;99.90;;;;;;4994095;28;20119;-62
2022/04/08 04:29:46;;;;;;;0.22;0.22;;;8.30;99.90;;;;;;5010749;28;20508;-64
2022/04/08 04:32:12;;;;;;;0.00;0.00;;;8.30;99.90;;;;;;5010305;28;20037;-63
2022/04/08 04:34:38;;;;;;;0.75;0.75;;;8.40;99.90;;;;;;5011275;28;20065;-62
2022/04/08 04:37:05;;;;;;;0.00;0.00;;;8.30;99.90;;;;;;5000712;28;20386;-63
2022/04/08 04:39:31;;;;;;;0.00;0.00;;;8.30;99.90;;;;;;5022161;28;20026;-63
2022/04/08 04:41:58;;;;;;;1.10;0.90;;;8.30;99.90;;;;;;5010199;28;20065;-63
2022/04/08 04:44:26;;;;;;;0.00;0.00;;;8.30;99.90;;;;;;5011101;28;20080;-63
2022/04/08 04:46:54;;;;;;;0.00;0.00;;;8.30;99.90;;;;;;5011418;28;20087;-63
2022/04/08 04:49:19;;;;;;;0.10;0.10;;;8.30;99.90;;;;;;5009969;28;20026;-63
2022/04/08 04:51:45;;;;;;;3.40;1.05;;;8.20;99.90;;;;;;5010288;28;20040;-64
2022/04/08 04:54:11;;;;;;;0.40;0.40;;;8.20;99.90;;;;;;5010156;28;20038;-61
2022/04/08 04:56:36;;;;;;;0.15;0.15;;;8.20;99.90;;;;;;5011409;28;20034;-62
2022/04/08 04:59:02;;;;;;;0.00;0.00;;;8.20;99.90;;;;;;5010525;28;20022;-62
2022/04/08 05:01:28;;;;;;;0.00;0.00;;;8.20;99.90;;;;;;4991725;28;20061;-62
2022/04/08 05:03:53;;;;;;;0.00;0.00;;;8.20;99.90;;;;;;4996692;28;20032;-62
2022/04/08 05:06:19;;;;;;;0.10;0.10;;;8.10;99.90;;;;;;4991316;28;20152;-62
2022/04/08 05:08:45;;;;;;;0.00;0.00;;;8.10;99.90;;;;;;5006518;28;20389;-62
2022/04/08 05:11:11;;;;;;;0.00;0.00;;;8.10;99.90;;;;;;4989978;28;20038;-62
2022/04/08 05:13:37;;;;;;;0.00;0.00;;;8.10;99.90;;;;;;4991246;28;20046;-62
2022/04/08 05:16:03;;;;;;;0.00;0.00;;;8.10;99.90;;;;;;5003240;28;20053;-63
2022/04/08 05:18:29;;;;;;;0.05;0.05;;;8.10;99.90;;;;;;5009707;28;20033;-62
2022/04/08 05:20:54;;;;;;;0.08;0.08;;;8.10;99.90;;;;;;5010985;28;20030;-63
2022/04/08 05:23:20;;;;;;;0.10;0.10;;;8.10;99.90;;;;;;5009751;28;20034;-62
2022/04/08 05:25:47;;;;;;;0.30;0.30;;;8.10;99.90;;;;;;5009380;28;20026;-63
2022/04/08 05:28:12;;;;;;;0.10;0.10;;;8.10;99.90;;;;;;5009466;28;20084;-63
2022/04/08 05:30:39;;;;;;;0.20;0.20;;;8.10;99.90;;;;;;5009530;28;20029;-62
2022/04/08 05:33:05;;;;;;;0.00;0.00;;;8.10;99.90;;;;;;5010577;28;20034;-62
2022/04/08 05:35:30;;;;;;;0.10;0.10;;;8.20;99.90;;;;;;4999527;28;20106;-62
2022/04/08 05:37:56;;;;;;;0.00;0.00;;;8.20;99.90;;;;;;4987692;28;20109;-62
2022/04/08 05:40:22;;;;;;;0.08;0.08;;;8.30;99.90;;;;;;4990878;28;20084;-62
2022/04/08 05:42:49;;;;;;;0.10;0.10;;;8.20;99.90;;;;;;4990505;28;20096;-62
2022/04/08 05:45:18;;;;;;;0.08;0.08;;;8.20;99.90;;;;;;4990840;28;20038;-62
2022/04/08 05:47:47;;;;;;;0.10;0.10;;;8.20;99.90;;;;;;4990904;28;20113;-62
2022/04/08 05:50:14;;;;;;;0.28;0.28;;;8.30;99.90;;;;;;4990797;28;20149;-62
2022/04/08 05:52:41;;;;;;;0.00;0.00;;;8.30;99.90;;;;;;4991044;28;20034;-62
2022/04/08 05:55:07;;;;;;;0.22;0.22;;;8.30;99.90;;;;;;4973309;28;20121;-62
2022/04/08 05:57:40;;;;;;;0.75;0.63;;;8.20;99.90;;;;;;4988859;28;20018;-63
2022/04/08 06:00:10;;;;;;;0.13;0.13;;;8.20;99.90;;;;;;4990579;28;20105;-62
2022/04/08 06:02:43;;;;;;;0.32;0.32;;;8.20;99.90;;;;;;4990822;28;20026;-62
2022/04/08 06:05:10;;;;;;;0.00;0.00;;;8.20;99.90;;;;;;4989614;28;20041;-59
2022/04/08 06:07:46;;;;;;;1.30;1.20;;;8.30;99.90;;;;;;4973131;28;20034;-62
2022/04/08 06:10:12;;;;;;;0.00;0.00;;;8.30;99.90;;;;;;4989582;28;20030;-61
2022/04/08 06:12:39;;;;;;;0.03;0.03;;;8.30;99.90;;;;;;4991178;28;20073;-60
2022/04/08 06:15:06;;;;;;;0.00;0.00;;;8.40;99.90;;;;;;4987649;28;20077;-61
2022/04/08 06:17:39;;;;;;;0.00;0.00;;;8.30;99.90;;;;;;4987575;28;20687;-60
2022/04/08 06:20:10;;;;;;;0.00;0.00;;;8.30;99.90;;;;;;5000790;28;20121;-60
2022/04/08 06:22:40;;;;;;;;;;;8.30;99.90;;;;;;5025490;28;20022;-61
2022/04/08 06:25:15;;;;;;;0.00;0.00;;;8.40;99.90;;;;;;5025180;28;19921;-61
2022/04/08 06:27:44;;;;;;;0.00;0.00;;;8.30;99.90;;;;;;5008744;28;20053;-60
2022/04/08 06:30:14;;;;;;;0.00;0.00;;;8.30;99.90;;;;;;5008977;28;20030;-60
2022/04/08 06:32:43;;;;;;;0.13;0.13;;;8.30;99.90;;;;;;5024896;28;20034;-61
2022/04/08 06:35:09;;;;;;;0.10;0.10;;;8.40;99.90;;;;;;5008791;28;20699;-61
2022/04/08 06:37:40;;;;;;;0.00;0.00;;;8.40;99.90;;;;;;4994716;28;20037;-61
2022/04/08 06:40:09;;;;;;;0.00;0.00;;;8.50;99.90;;;;;;5005460;28;20113;-61
2022/04/08 06:42:35;;;;;;;8.38;1.17;;;8.40;99.90;;;;;;5005574;28;20101;-61
2022/04/08 06:45:03;;;;;;;0.30;0.30;;;8.50;99.90;;;;;;4990423;28;20033;-60
2022/04/08 06:47:29;;;;;;;0.57;0.57;;;8.40;99.90;;;;;;4989832;28;20031;-61
2022/04/08 06:49:55;;;;;;;0.08;0.08;;;8.40;99.90;;;;;;4990117;28;20076;-61
2022/04/08 06:52:21;;;;;;;0.00;0.00;;;8.50;99.90;;;;;;4990271;28;20035;-61
2022/04/08 06:54:47;;;;;;;0.30;0.30;;;8.50;99.90;;;;;;4988200;28;20125;-61
2022/04/08 06:57:12;;;;;;;0.00;0.00;;;8.60;99.90;;;;;;4992957;28;20582;-60
2022/04/08 06:59:40;;;;;;;0.00;0.00;;;8.50;99.90;;;;;;4992919;28;20037;-60
2022/04/08 07:02:06;;;;;;;1.33;1.23;;;8.60;99.90;;;;;;4992272;28;20029;-60
2022/04/08 07:04:32;;;;;;;0.10;0.10;;;8.60;99.90;;;;;;4992585;28;20037;-61
2022/04/08 07:06:58;;;;;;;0.08;0.08;;;8.70;99.90;;;;;;4993864;28;20109;-61
2022/04/08 07:09:23;;;;;;;0.00;0.00;;;8.70;99.90;;;;;;4993578;28;20035;-62
2022/04/08 07:11:49;;;;;;;0.00;0.00;;;8.60;99.90;;;;;;4992457;28;20072;-62
2022/04/08 07:14:15;;;;;;;0.00;0.00;;;8.60;99.90;;;;;;5008691;28;20419;-62
2022/04/08 07:16:43;;;;;;;0.00;0.00;;;8.60;99.90;;;;;;4989220;28;20038;-61
2022/04/08 07:19:13;;;;;;;0.00;0.00;;;8.60;99.90;;;;;;4975675;28;20022;-62
2022/04/08 07:21:39;;;;;;;0.00;0.00;;;8.60;99.90;;;;;;5004448;28;20430;-61
2022/04/08 07:24:05;;;;;;;0.08;0.08;;;8.70;99.90;;;;;;5022580;28;20118;-63
2022/04/08 07:26:31;;;;;;;0.00;0.00;;;8.70;99.90;;;;;;5000729;28;20072;-64
2022/04/08 07:29:00;;;;;;;0.00;0.00;;;8.60;99.90;;;;;;5018751;28;20073;-63
2022/04/08 07:31:26;;;;;;;0.00;0.00;;;8.70;99.90;;;;;;5008352;28;20052;-61
2022/04/08 07:33:52;;;;;;;0.00;0.00;;;8.70;99.90;;;;;;5003015;28;20486;-61
2022/04/08 07:36:21;;;;;;;0.00;0.00;;;8.70;99.90;;;;;;5009525;28;20037;-62
2022/04/08 07:38:47;;;;;;;0.10;0.10;;;8.70;99.90;;;;;;5015601;28;20127;-63
2022/04/08 07:41:13;;;;;;;0.00;0.00;;;8.70;99.90;;;;;;4975496;28;20081;-62
2022/04/08 07:43:38;;;;;;;0.00;0.00;;;8.80;99.90;;;;;;5002798;28;20498;-63
2022/04/08 07:46:05;;;;;;;0.00;0.00;;;8.80;99.90;;;;;;4996847;28;20038;-62
2022/04/08 07:48:31;;;;;;;0.32;0.32;;;8.80;99.90;;;;;;5000742;28;20026;-62
2022/04/08 07:50:57;;;;;;;0.03;0.03;;;8.70;99.90;;;;;;5004355;28;20056;-62
2022/04/08 07:53:23;;;;;;;0.00;0.00;;;8.70;99.90;;;;;;5003577;28;20037;-62
2022/04/08 07:55:49;;;;;;;0.10;0.10;;;8.70;99.90;;;;;;4992727;28;20433;-63
2022/04/08 07:58:15;;;;;;;0.00;0.00;;;8.70;99.90;;;;;;4995071;28;20055;-62
2022/04/08 08:00:41;;;;;;;0.00;0.00;;;8.80;99.90;;;;;;4992646;28;20034;-63
2022/04/08 08:03:06;;;;;;;0.10;0.10;;;8.70;99.90;;;;;;4999904;28;20099;-63
2022/04/08 08:05:33;;;;;;;0.10;0.10;;;8.90;99.90;;;;;;4991070;28;20509;-63
2022/04/08 08:08:02;;;;;;;0.10;0.10;;;9.00;99.90;;;;;;5001167;28;20025;-63
2022/04/08 08:10:38;;;;;;;0.00;0.00;;;8.90;99.90;;;;;;5007241;28;20030;-62
2022/04/08 08:13:05;;;;;;;0.17;0.17;;;9.00;99.90;;;;;;4999987;28;20037;-63
2022/04/08 08:15:33;;;;;;;0.10;0.10;;;9.00;99.90;;;;;;4992596;28;20054;-62
2022/04/08 08:17:59;;;;;;;0.00;0.00;;;9.00;99.90;;;;;;5001755;28;20112;-62
2022/04/08 08:20:26;;;;;;;4.72;0.63;;;9.10;99.90;;;;;;5016063;28;20080;-63
2022/04/08 08:22:52;;;;;;;0.00;0.00;;;9.00;99.90;;;;;;5011246;28;20046;-62
2022/04/08 08:25:20;;;;;;;0.10;0.10;;;9.10;99.90;;;;;;4997376;28;20164;-63
2022/04/08 08:27:59;;;;;;;0.08;0.08;;;9.00;99.90;;;;;;5013539;28;20058;-62
2022/04/08 08:30:27;;;;;;;0.45;0.45;;;9.00;99.90;;;;;;4992133;28;20049;-63
2022/04/08 08:32:52;;;;;;;0.00;0.00;;;8.90;99.90;;;;;;4997544;28;20045;-63
2022/04/08 08:35:19;;;;;;;0.00;0.00;;;9.00;99.90;;;;;;4993230;28;20030;-62
2022/04/08 08:37:47;;;;;;;0.52;0.52;;;9.10;99.90;;;;;;4993129;28;20385;-63
2022/04/08 08:40:15;;;;;;;14.60;1.98;;;9.10;99.90;;;;;;5003644;28;20156;-63
2022/04/08 08:42:42;;;;;;;0.00;0.00;;;9.10;99.90;;;;;;5001121;28;20041;-62
2022/04/08 08:45:13;;;;;;;0.70;0.70;;;9.10;99.90;;;;;;5010883;28;20421;-62
2022/04/08 08:47:39;;;;;;;;;;;9.20;99.90;;;;;;5003091;28;20026;-62
2022/04/08 08:50:07;;;;;;;0.25;0.25;;;9.20;99.90;;;;;;5003843;28;19919;-62
2022/04/08 08:52:33;;;;;;;6.03;4.05;;;9.20;99.90;;;;;;5019895;28;20044;-62
2022/04/08 08:55:05;;;;;;;0.75;0.75;;;9.20;99.90;;;;;;5004024;28;20429;-62
2022/04/08 08:57:31;;;;;;;0.00;0.00;;;9.20;99.90;;;;;;5005476;28;20497;-62
2022/04/08 09:00:15;;;;;;;0.00;0.00;;;9.20;99.90;;;;;;5009198;28;20509;-62
2022/04/08 09:02:43;;;;;;;0.15;0.15;;;9.20;99.90;;;;;;4998001;28;20121;-62
2022/04/08 09:05:25;;;;;;;0.00;0.00;;;9.20;99.90;;;;;;5007229;28;20036;-62
2022/04/08 09:07:59;;;;;;;0.00;0.00;;;9.10;99.90;;;;;;4998349;28;20044;-62
2022/04/08 09:10:32;;;;;;;0.52;0.52;;;9.00;99.90;;;;;;5001198;28;20034;-64
2022/04/08 09:13:00;;;;;;;3.72;1.88;;;8.70;99.90;;;;;;5004483;28;20359;-62
2022/04/08 09:15:27;;;;;;;0.00;0.00;;;8.50;99.90;;;;;;5000173;28;20121;-63
2022/04/08 09:17:54;;;;;;;0.00;0.00;;;8.20;99.90;;;;;;5004463;28;20069;-63
2022/04/08 09:20:20;;;;;;;1.08;0.90;;;8.10;99.90;;;;;;5002965;28;20076;-63
2022/04/08 09:22:56;;;;;;;0.05;0.05;;;7.90;99.90;;;;;;5021178;28;20041;-62
2022/04/08 09:25:26;;;;;;;8.80;1.45;;;7.80;99.90;;;;;;4986996;28;20041;-62
2022/04/08 09:28:04;;;;;;;0.10;0.10;;;7.70;99.90;;;;;;4990882;28;20049;-63
2022/04/08 09:30:30;;;;;;;0.15;0.15;;;7.60;99.90;;;;;;4990233;28;20026;-62
2022/04/08 09:32:56;;;;;;;0.00;0.00;;;7.60;99.90;;;;;;4999129;28;20042;-61
2022/04/08 09:35:24;;;;;;;0.13;0.13;;;7.50;99.90;;;;;;5010592;28;20030;-63
2022/04/08 09:38:03;;;;;;;0.08;0.08;;;7.40;99.90;;;;;;5001695;28;20034;-61
2022/04/08 09:40:39;;;;;;;0.10;0.10;;;7.40;99.90;;;;;;4971193;28;20085;-60
2022/04/08 09:43:06;;;;;;;0.10;0.10;;;7.30;99.90;;;;;;4993008;28;20106;-60
2022/04/08 09:45:33;;;;;;;0.82;0.82;;;7.20;99.90;;;;;;4990783;28;20533;-61
2022/04/08 09:48:03;;;;;;;0.00;0.00;;;7.20;99.90;;;;;;4980603;28;20026;-60
2022/04/08 09:50:29;;;;;;;0.10;0.10;;;7.20;99.90;;;;;;5006215;28;20111;-61
2022/04/08 09:52:55;;;;;;;0.10;0.10;;;7.20;99.90;;;;;;4997020;28;20084;-61
2022/04/08 09:55:23;;;;;;;0.10;0.10;;;7.10;99.90;;;;;;4989373;28;20031;-59
2022/04/08 09:57:56;;;;;;;0.00;0.00;;;7.10;99.90;;;;;;4996482;28;20018;-60
2022/04/08 10:00:22;;;;;;;0.00;0.00;;;7.10;99.90;;;;;;5005083;28;20027;-60
2022/04/08 10:02:51;;;;;;;0.00;0.00;;;7.10;99.90;;;;;;4996288;28;20033;-60
2022/04/08 10:05:17;;;;;;;0.00;0.00;;;7.00;99.90;;;;;;5005215;28;20046;-60
2022/04/08 10:07:47;;;;;;;2.40;1.25;;;7.00;99.90;;;;;;4995662;28;20048;-60
2022/04/08 10:10:31;;;;;;;0.03;0.03;;;7.00;99.90;;;;;;5005810;28;20037;-61
2022/04/08 10:13:31;;;;;;;1.77;0.80;;;6.90;99.90;;;;;;4997905;28;20216;-62
2022/04/08 10:16:20;;;;;;;0.10;0.10;;;6.90;99.90;;;;;;4989802;28;20046;-61
2022/04/08 10:18:48;;;;;;;0.10;0.10;;;6.80;99.90;;;;;;5014579;28;20023;-61
2022/04/08 10:21:15;;;;;;;0.00;0.00;;;6.80;99.90;;;;;;4989217;28;20031;-61
2022/04/08 10:23:55;;;;;;;0.00;0.00;;;6.70;99.90;;;;;;4997863;28;20030;-61
2022/04/08 10:26:23;;;;;;;1.38;0.98;;;6.70;99.90;;;;;;5007426;28;20092;-62
2022/04/08 10:28:53;;;;;;;0.10;0.10;;;6.70;99.90;;;;;;5000648;28;20064;-61
2022/04/08 10:31:25;;;;;;;0.00;0.00;;;6.70;99.90;;;;;;4985756;28;20038;-61
2022/04/08 10:33:57;;;;;;;0.10;0.10;;;6.70;99.90;;;;;;4993749;28;20041;-61
2022/04/08 10:36:38;;;;;;;0.00;0.00;;;6.70;99.90;;;;;;4988977;28;20034;-62
2022/04/08 10:39:12;;;;;;;;;;;6.70;99.90;;;;;;5003931;28;20041;-62
2022/04/08 10:42:06;;;;;;;0.08;0.08;;;6.70;99.90;;;;;;5008056;28;19932;-61
2022/04/08 10:44:37;;;;;;;0.00;0.00;;;6.60;99.90;;;;;;5001260;28;20046;-61
2022/04/08 10:47:16;;;;;;;0.00;0.00;;;6.60;99.90;;;;;;4997924;28;20097;-62
2022/04/08 10:50:04;;;;;;;0.00;0.00;;;6.50;99.90;;;;;;4992470;28;20146;-62
2022/04/08 10:52:39;;;;;;;0.00;0.00;;;6.50;99.90;;;;;;4998626;28;20491;-62
2022/04/08 10:55:12;;;;;;;0.00;0.00;;;6.40;99.90;;;;;;5010526;28;20113;-62
2022/04/08 10:57:43;;;;;;;0.00;0.00;;;6.40;99.90;;;;;;4997556;28;20030;-61
2022/04/08 11:00:19;;;;;;;0.00;0.00;;;6.20;99.90;;;;;;5008777;28;20509;-63
2022/04/08 11:02:46;;;;;;;0.00;0.00;;;6.20;99.90;;;;;;5002006;28;20037;-63
2022/04/08 11:05:14;;;;;;;0.10;0.10;;;6.30;99.90;;;;;;5011475;28;20025;-62
2022/04/08 11:07:42;;;;;;;0.75;0.70;;;6.20;99.90;;;;;;5004648;28;20030;-62
2022/04/08 11:10:20;;;;;;;0.10;0.10;;;6.20;99.90;;;;;;4994712;28;20022;-62
2022/04/08 11:12:52;;;;;;;0.10;0.10;;;6.20;99.90;;;;;;5000414;28;20092;-62
2022/04/08 11:15:23;;;;;;;0.00;0.00;;;6.20;99.90;;;;;;4993300;28;20042;-62
2022/04/08 11:17:51;;;;;;;0.00;0.00;;;6.20;99.90;;;;;;4999160;28;20095;-62
2022/04/08 11:20:20;;;;;;;0.28;0.28;;;6.20;99.90;;;;;;4993497;28;20045;-62
2022/04/08 11:22:50;;;;;;;0.00;0.00;;;6.20;99.90;;;;;;5015634;28;20029;-63
2022/04/08 11:25:25;;;;;;;0.00;0.00;;;6.30;99.90;;;;;;5008262;28;20022;-63
2022/04/08 11:28:06;;;;;;;0.00;0.00;;;6.30;99.90;;;;;;4982767;28;20067;-62
2022/04/08 11:30:40;;;;;;;0.00;0.00;;;6.30;99.90;;;;;;4973750;28;20111;-62
2022/04/08 11:33:13;;;;;;;3.97;2.85;;;6.30;99.90;;;;;;4992721;28;20088;-63
2022/04/08 11:35:40;;;;;;;0.03;0.03;;;6.30;99.90;;;;;;5012514;28;20047;-62
2022/04/08 11:38:20;;;;;;;0.00;0.00;;;6.30;99.90;;;;;;5002152;28;20022;-62
2022/04/08 11:40:46;;;;;;;0.00;0.00;;;6.20;99.90;;;;;;4975835;28;20073;-62
2022/04/08 11:43:22;;;;;;;0.00;0.00;;;6.20;99.90;;;;;;4996584;28;20042;-62
2022/04/08 11:45:55;;;;;;;0.00;0.00;;;6.20;99.90;;;;;;4997715;28;20027;-62
2022/04/08 11:48:23;;;;;;;0.95;0.90;;;6.20;99.90;;;;;;4992346;28;20030;-62
2022/04/08 11:50:50;;;;;;;0.00;0.00;;;6.20;99.90;;;;;;4996488;28;20029;-63
2022/04/08 11:53:21;;;;;;;0.17;0.17;;;6.20;99.90;;;;;;5011261;28;20026;-63
2022/04/08 11:56:21;;;;;;;0.10;0.10;;;6.10;99.90;;;;;;4999182;28;20033;-62
2022/04/08 11:59:04;;;;;;;0.00;0.00;;;6.10;99.90;;;;;;5003295;28;20026;-61
2022/04/08 12:01:38;;;;;;;0.00;0.00;;;6.10;99.90;;;;;;5005681;28;20037;-62
2022/04/08 12:04:09;;;;;;;0.00;0.00;;;6.20;99.90;;;;;;4999309;28;20325;-62
2022/04/08 12:06:48;;;;;;;0.32;0.32;;;6.30;99.90;;;;;;5009510;28;20061;-62
2022/04/08 12:09:16;;;;;;;0.00;0.00;;;6.30;99.90;;;;;;4991679;28;20117;-63
2022/04/08 12:11:45;;;;;;;0.00;0.00;;;6.30;99.90;;;;;;4995665;28;20034;-62
2022/04/08 12:14:12;;;;;;;0.00;0.00;;;6.30;99.90;;;;;;5011308;28;20068;-62
2022/04/08 12:16:39;;;;;;;0.10;0.10;;;6.30;99.90;;;;;;5004640;28;20616;-62
2022/04/08 12:19:08;;;;;;;0.00;0.00;;;6.10;99.90;;;;;;4996796;28;20119;-62
2022/04/08 12:21:35;;;;;;;0.10;0.10;;;6.00;99.90;;;;;;5000285;28;20153;-63
2022/04/08 12:24:03;;;;;;;0.10;0.10;;;6.00;99.90;;;;;;5017796;28;20038;-62
2022/04/08 12:26:36;;;;;;;0.00;0.00;;;5.90;99.90;;;;;;5005629;28;20032;-63
2022/04/08 12:29:14;;;;;;;1.70;0.85;;;5.80;99.90;;;;;;5001846;28;20042;-63
2022/04/08 12:32:01;;;;;;;0.00;0.00;;;5.80;99.90;;;;;;5004494;28;20113;-63
2022/04/08 12:34:27;;;;;;;0.00;0.00;;;5.80;99.90;;;;;;4990876;28;20046;-62
2022/04/08 12:36:53;;;;;;;0.00;0.00;;;5.80;99.90;;;;;;4999420;28;20378;-62
2022/04/08 12:39:21;;;;;;;0.10;0.10;;;5.80;99.90;;;;;;4990939;28;20505;-62
2022/04/08 12:41:49;;;;;;;0.00;0.00;;;5.80;99.90;;;;;;5017679;28;20067;-62
2022/04/08 12:44:15;;;;;;;0.00;0.00;;;5.80;99.90;;;;;;4992101;28;20063;-62
2022/04/08 12:46:41;;;;;;;0.00;0.00;;;5.80;99.90;;;;;;4998861;28;20386;-63
2022/04/08 12:49:07;;;;;;;0.03;0.03;;;5.70;99.90;;;;;;4999477;28;20026;-62
2022/04/08 12:51:34;;;;;;;0.00;0.00;;;5.80;99.90;;;;;;4995191;28;20122;-63
2022/04/08 12:54:00;;;;;;;0.00;0.00;;;5.70;99.90;;;;;;4993416;28;20037;-63
2022/04/08 12:56:27;;;;;;;0.10;0.10;;;5.80;99.90;;;;;;5021875;23;20049;-61
2022/04/08 12:58:53;;;;;;;0.10;0.10;;;5.80;99.90;;;;;;5009837;28;20033;-61
2022/04/08 13:01:20;;;;;;;0.00;0.00;;;6.10;99.90;;;;;;5017442;28;20035;-61
2022/04/08 13:03:45;;;;;;;0.03;0.03;;;6.00;99.90;;;;;;5014858;28;20033;-61